This is the latest recevied weather packets stored in our database for station/object OE3EMC-13. If no packets are shown the sender has not sent any weather packets the latest 1 day(s).
| Time | Temp. | Humidity | Pressure | Rain* | Wind** | Luminosity | Snow |
|---|---|---|---|---|---|---|---|
| 1778029390 | 10.56° C | 85% | 1100 hPa | 0 mm | - | - | - |
| 1778028790 | 10.56° C | 84% | 1100 hPa | 0 mm | - | - | - |
| 1778027590 | 10.56° C | 83% | 1100 hPa | 0 mm | - | - | - |
| 1778026994 | 10.56° C | 83% | 1100 hPa | 0 mm | - | - | - |
| 1778026395 | 11.11° C | 82% | 1100 hPa | 0 mm | - | - | - |
| 1778025794 | 11.11° C | 82% | 1100 hPa | 0 mm | - | - | - |
| 1778025194 | 10.56° C | 82% | 1100 hPa | 0 mm | - | - | - |
| 1778024595 | 10.56° C | 82% | 1100 hPa | 0 mm | - | - | - |
| 1778023994 | 10.56° C | 82% | 1100 hPa | 0 mm | - | - | - |
| 1778020993 | 10.56° C | 83% | 1100 hPa | 0 mm | - | - | - |
| 1778017392 | 11.67° C | 83% | 1100 hPa | 0 mm | - | - | - |
| 1778016792 | 12.22° C | 79% | 1100 hPa | 0 mm | - | - | - |
| 1778016192 | 12.22° C | 79% | 1100 hPa | 0 mm | - | - | - |
| 1778014993 | 12.78° C | 74% | 1100 hPa | 0 mm | - | - | - |
| 1778013791 | 13.33° C | 73% | 1100 hPa | 0 mm | - | - | - |
| 1778012592 | 13.89° C | 69% | 1100 hPa | 0 mm | - | - | - |
| 1778011991 | 15° C | 64% | 1100 hPa | 0 mm | - | - | - |
| 1778007791 | 15.56° C | 54% | 1100 hPa | 0 mm | - | - | - |
| 1778007190 | 16.11° C | 51% | 1100 hPa | 0 mm | - | - | - |
| 1778003594 | 20° C | 42% | 1100 hPa | 0 mm | - | - | - |
| 1778000593 | 21.11° C | 37% | 1100 hPa | 0 mm | - | - | - |
| 1777999993 | 22.22° C | 35% | 1100 hPa | 0 mm | - | - | - |
| 1777999393 | 22.22° C | 35% | 1100 hPa | 0 mm | - | - | - |
| 1777998794 | 23.33° C | 34% | 1100 hPa | 0 mm | - | - | - |
* Rain latest hour (hover to see other rain measurements)
** Current wind speed in m/s (hover to see current wind gust speed)